sensor_id;sensor_type;location;lat;lon;timestamp;P1;durP1;ratioP1;P2;durP2;ratioP2
15480;SDS011;7842;50.904;6.670;2022-07-03T00:01:46;3.25;;;1.67;;
15480;SDS011;7842;50.904;6.670;2022-07-03T00:04:12;4.13;;;2.00;;
15480;SDS011;7842;50.904;6.670;2022-07-03T00:06:38;3.60;;;1.80;;
15480;SDS011;7842;50.904;6.670;2022-07-03T00:09:04;3.47;;;1.80;;
15480;SDS011;7842;50.904;6.670;2022-07-03T00:11:30;3.47;;;2.03;;
15480;SDS011;7842;50.904;6.670;2022-07-03T00:13:56;3.55;;;1.85;;
15480;SDS011;7842;50.904;6.670;2022-07-03T00:16:22;3.65;;;2.00;;
15480;SDS011;7842;50.904;6.670;2022-07-03T00:18:48;3.60;;;2.00;;
15480;SDS011;7842;50.904;6.670;2022-07-03T00:21:16;5.57;;;2.33;;
15480;SDS011;7842;50.904;6.670;2022-07-03T00:23:54;4.10;;;2.20;;
15480;SDS011;7842;50.904;6.670;2022-07-03T00:26:22;6.70;;;2.80;;
15480;SDS011;7842;50.904;6.670;2022-07-03T00:28:50;4.75;;;2.92;;
15480;SDS011;7842;50.904;6.670;2022-07-03T00:31:17;6.80;;;2.47;;
15480;SDS011;7842;50.904;6.670;2022-07-03T00:33:42;5.43;;;2.47;;
15480;SDS011;7842;50.904;6.670;2022-07-03T00:36:09;5.32;;;2.65;;
15480;SDS011;7842;50.904;6.670;2022-07-03T00:38:36;3.92;;;2.28;;
15480;SDS011;7842;50.904;6.670;2022-07-03T00:41:02;4.75;;;2.28;;
15480;SDS011;7842;50.904;6.670;2022-07-03T00:43:29;3.55;;;2.10;;
15480;SDS011;7842;50.904;6.670;2022-07-03T00:45:55;4.40;;;2.40;;
15480;SDS011;7842;50.904;6.670;2022-07-03T00:48:32;4.10;;;2.20;;
15480;SDS011;7842;50.904;6.670;2022-07-03T00:51:02;3.53;;;2.20;;
15480;SDS011;7842;50.904;6.670;2022-07-03T00:53:32;4.47;;;2.47;;
15480;SDS011;7842;50.904;6.670;2022-07-03T00:56:00;3.90;;;2.20;;
15480;SDS011;7842;50.904;6.670;2022-07-03T00:58:29;4.57;;;2.33;;
15480;SDS011;7842;50.904;6.670;2022-07-03T01:00:59;4.17;;;2.20;;
15480;SDS011;7842;50.904;6.670;2022-07-03T01:03:25;3.50;;;2.35;;
15480;SDS011;7842;50.904;6.670;2022-07-03T01:05:53;3.95;;;2.40;;
15480;SDS011;7842;50.904;6.670;2022-07-03T01:08:21;5.75;;;2.03;;
15480;SDS011;7842;50.904;6.670;2022-07-03T01:13:44;5.38;;;2.22;;
15480;SDS011;7842;50.904;6.670;2022-07-03T01:16:31;3.92;;;2.10;;
15480;SDS011;7842;50.904;6.670;2022-07-03T01:21:54;3.28;;;2.33;;
15480;SDS011;7842;50.904;6.670;2022-07-03T01:27:23;4.07;;;2.38;;
15480;SDS011;7842;50.904;6.670;2022-07-03T01:30:04;3.95;;;2.30;;
15480;SDS011;7842;50.904;6.670;2022-07-03T01:32:41;3.15;;;2.10;;
15480;SDS011;7842;50.904;6.670;2022-07-03T01:35:11;3.85;;;2.08;;
15480;SDS011;7842;50.904;6.670;2022-07-03T01:37:39;3.50;;;2.33;;
15480;SDS011;7842;50.904;6.670;2022-07-03T01:40:06;3.72;;;2.40;;
15480;SDS011;7842;50.904;6.670;2022-07-03T01:42:32;5.00;;;2.50;;
15480;SDS011;7842;50.904;6.670;2022-07-03T01:44:59;4.28;;;2.25;;
15480;SDS011;7842;50.904;6.670;2022-07-03T01:47:26;4.20;;;2.33;;
15480;SDS011;7842;50.904;6.670;2022-07-03T01:49:53;2.42;;;2.15;;
15480;SDS011;7842;50.904;6.670;2022-07-03T01:52:20;4.05;;;2.70;;
15480;SDS011;7842;50.904;6.670;2022-07-03T01:54:47;4.43;;;2.35;;
15480;SDS011;7842;50.904;6.670;2022-07-03T01:57:14;3.75;;;2.50;;
15480;SDS011;7842;50.904;6.670;2022-07-03T01:59:41;3.75;;;2.35;;
15480;SDS011;7842;50.904;6.670;2022-07-03T02:02:20;4.32;;;2.42;;
15480;SDS011;7842;50.904;6.670;2022-07-03T02:04:59;4.30;;;2.55;;
15480;SDS011;7842;50.904;6.670;2022-07-03T02:07:39;4.03;;;3.08;;
15480;SDS011;7842;50.904;6.670;2022-07-03T02:10:24;4.35;;;2.85;;
15480;SDS011;7842;50.904;6.670;2022-07-03T02:12:58;3.85;;;2.90;;
15480;SDS011;7842;50.904;6.670;2022-07-03T02:15:31;5.63;;;3.10;;
15480;SDS011;7842;50.904;6.670;2022-07-03T02:17:57;5.15;;;3.03;;
15480;SDS011;7842;50.904;6.670;2022-07-03T02:20:33;3.60;;;2.70;;
15480;SDS011;7842;50.904;6.670;2022-07-03T02:23:02;3.67;;;2.70;;
15480;SDS011;7842;50.904;6.670;2022-07-03T02:30:32;4.25;;;2.72;;
15480;SDS011;7842;50.904;6.670;2022-07-03T02:33:01;4.25;;;2.55;;
15480;SDS011;7842;50.904;6.670;2022-07-03T02:35:28;3.70;;;2.60;;
15480;SDS011;7842;50.904;6.670;2022-07-03T02:38:08;4.10;;;2.90;;
15480;SDS011;7842;50.904;6.670;2022-07-03T02:40:41;3.97;;;2.92;;
15480;SDS011;7842;50.904;6.670;2022-07-03T02:43:28;3.47;;;2.40;;
15480;SDS011;7842;50.904;6.670;2022-07-03T02:46:14;3.40;;;2.60;;
15480;SDS011;7842;50.904;6.670;2022-07-03T02:49:14;4.20;;;2.92;;
15480;SDS011;7842;50.904;6.670;2022-07-03T02:51:52;3.55;;;2.67;;
15480;SDS011;7842;50.904;6.670;2022-07-03T02:54:42;3.55;;;2.92;;
15480;SDS011;7842;50.904;6.670;2022-07-03T02:57:11;4.03;;;2.65;;
15480;SDS011;7842;50.904;6.670;2022-07-03T03:00:03;5.32;;;3.10;;
15480;SDS011;7842;50.904;6.670;2022-07-03T03:05:16;5.13;;;2.90;;
15480;SDS011;7842;50.904;6.670;2022-07-03T03:08:02;4.22;;;2.70;;
15480;SDS011;7842;50.904;6.670;2022-07-03T03:10:48;5.03;;;2.80;;
15480;SDS011;7842;50.904;6.670;2022-07-03T03:13:16;3.33;;;2.47;;
15480;SDS011;7842;50.904;6.670;2022-07-03T03:16:06;5.10;;;2.70;;
15480;SDS011;7842;50.904;6.670;2022-07-03T03:18:31;3.33;;;2.70;;
15480;SDS011;7842;50.904;6.670;2022-07-03T03:21:01;4.07;;;2.88;;
15480;SDS011;7842;50.904;6.670;2022-07-03T03:23:37;3.08;;;2.78;;
15480;SDS011;7842;50.904;6.670;2022-07-03T03:26:03;5.03;;;3.10;;
15480;SDS011;7842;50.904;6.670;2022-07-03T03:28:29;3.83;;;2.70;;
15480;SDS011;7842;50.904;6.670;2022-07-03T03:30:55;4.07;;;2.80;;
15480;SDS011;7842;50.904;6.670;2022-07-03T03:33:21;3.13;;;2.83;;
15480;SDS011;7842;50.904;6.670;2022-07-03T03:35:47;4.75;;;2.70;;
15480;SDS011;7842;50.904;6.670;2022-07-03T03:38:13;4.70;;;2.93;;
15480;SDS011;7842;50.904;6.670;2022-07-03T03:40:39;4.90;;;3.00;;
15480;SDS011;7842;50.904;6.670;2022-07-03T03:43:05;3.65;;;3.10;;
15480;SDS011;7842;50.904;6.670;2022-07-03T03:45:31;3.78;;;2.80;;
15480;SDS011;7842;50.904;6.670;2022-07-03T03:47:57;4.50;;;2.90;;
15480;SDS011;7842;50.904;6.670;2022-07-03T03:50:23;4.32;;;3.00;;
15480;SDS011;7842;50.904;6.670;2022-07-03T03:52:50;5.35;;;2.95;;
15480;SDS011;7842;50.904;6.670;2022-07-03T03:55:15;5.32;;;3.05;;
15480;SDS011;7842;50.904;6.670;2022-07-03T03:57:41;4.32;;;3.00;;
15480;SDS011;7842;50.904;6.670;2022-07-03T04:00:08;5.27;;;3.00;;
15480;SDS011;7842;50.904;6.670;2022-07-03T04:02:34;3.72;;;2.70;;
15480;SDS011;7842;50.904;6.670;2022-07-03T04:05:00;3.85;;;3.08;;
15480;SDS011;7842;50.904;6.670;2022-07-03T04:07:26;3.22;;;2.60;;
15480;SDS011;7842;50.904;6.670;2022-07-03T04:09:52;5.45;;;2.85;;
15480;SDS011;7842;50.904;6.670;2022-07-03T04:12:18;4.75;;;2.70;;
15480;SDS011;7842;50.904;6.670;2022-07-03T04:14:44;2.95;;;2.65;;
15480;SDS011;7842;50.904;6.670;2022-07-03T04:17:10;4.07;;;2.95;;
15480;SDS011;7842;50.904;6.670;2022-07-03T04:19:36;4.05;;;2.50;;
15480;SDS011;7842;50.904;6.670;2022-07-03T04:22:02;3.85;;;2.40;;
15480;SDS011;7842;50.904;6.670;2022-07-03T04:24:33;4.00;;;2.70;;
15480;SDS011;7842;50.904;6.670;2022-07-03T04:26:59;2.53;;;2.30;;
15480;SDS011;7842;50.904;6.670;2022-07-03T04:29:25;2.78;;;2.50;;
15480;SDS011;7842;50.904;6.670;2022-07-03T04:31:50;3.00;;;2.47;;
15480;SDS011;7842;50.904;6.670;2022-07-03T04:34:16;3.28;;;2.53;;
15480;SDS011;7842;50.904;6.670;2022-07-03T04:36:42;3.60;;;2.70;;
15480;SDS011;7842;50.904;6.670;2022-07-03T04:39:08;5.10;;;2.63;;
15480;SDS011;7842;50.904;6.670;2022-07-03T04:41:34;5.07;;;2.80;;
15480;SDS011;7842;50.904;6.670;2022-07-03T04:44:00;3.63;;;2.70;;
15480;SDS011;7842;50.904;6.670;2022-07-03T04:46:26;5.53;;;2.63;;
15480;SDS011;7842;50.904;6.670;2022-07-03T04:48:52;3.83;;;2.55;;
15480;SDS011;7842;50.904;6.670;2022-07-03T04:51:18;3.40;;;2.50;;
15480;SDS011;7842;50.904;6.670;2022-07-03T04:53:44;4.10;;;2.43;;
15480;SDS011;7842;50.904;6.670;2022-07-03T04:56:10;3.93;;;2.40;;
15480;SDS011;7842;50.904;6.670;2022-07-03T04:58:36;3.20;;;2.47;;
15480;SDS011;7842;50.904;6.670;2022-07-03T05:01:02;3.40;;;2.40;;
15480;SDS011;7842;50.904;6.670;2022-07-03T05:03:28;4.03;;;2.45;;
15480;SDS011;7842;50.904;6.670;2022-07-03T05:05:54;4.72;;;2.70;;
15480;SDS011;7842;50.904;6.670;2022-07-03T05:08:20;4.25;;;2.30;;
15480;SDS011;7842;50.904;6.670;2022-07-03T05:10:46;4.07;;;2.40;;
15480;SDS011;7842;50.904;6.670;2022-07-03T05:13:12;2.63;;;2.40;;
15480;SDS011;7842;50.904;6.670;2022-07-03T05:15:38;6.07;;;2.40;;
15480;SDS011;7842;50.904;6.670;2022-07-03T05:18:04;4.50;;;2.35;;
15480;SDS011;7842;50.904;6.670;2022-07-03T05:20:30;6.90;;;2.40;;
15480;SDS011;7842;50.904;6.670;2022-07-03T05:22:57;6.20;;;2.33;;
15480;SDS011;7842;50.904;6.670;2022-07-03T05:25:23;4.00;;;2.40;;
15480;SDS011;7842;50.904;6.670;2022-07-03T05:27:50;2.92;;;2.20;;
15480;SDS011;7842;50.904;6.670;2022-07-03T05:30:17;5.40;;;2.38;;
15480;SDS011;7842;50.904;6.670;2022-07-03T05:32:44;4.40;;;2.35;;
15480;SDS011;7842;50.904;6.670;2022-07-03T05:35:10;5.13;;;2.70;;
15480;SDS011;7842;50.904;6.670;2022-07-03T05:37:36;4.88;;;2.33;;
15480;SDS011;7842;50.904;6.670;2022-07-03T05:40:03;7.53;;;2.55;;
15480;SDS011;7842;50.904;6.670;2022-07-03T05:42:29;4.72;;;2.47;;
15480;SDS011;7842;50.904;6.670;2022-07-03T05:44:55;5.03;;;2.50;;
15480;SDS011;7842;50.904;6.670;2022-07-03T05:47:21;4.60;;;2.42;;
15480;SDS011;7842;50.904;6.670;2022-07-03T05:49:47;9.60;;;3.30;;
15480;SDS011;7842;50.904;6.670;2022-07-03T05:52:13;7.57;;;3.00;;
15480;SDS011;7842;50.904;6.670;2022-07-03T05:54:39;9.27;;;3.20;;
15480;SDS011;7842;50.904;6.670;2022-07-03T05:57:05;6.97;;;3.43;;
15480;SDS011;7842;50.904;6.670;2022-07-03T05:59:31;6.25;;;3.10;;
15480;SDS011;7842;50.904;6.670;2022-07-03T06:01:57;6.60;;;2.92;;
15480;SDS011;7842;50.904;6.670;2022-07-03T06:04:23;5.78;;;3.30;;
15480;SDS011;7842;50.904;6.670;2022-07-03T06:06:49;8.10;;;3.33;;
15480;SDS011;7842;50.904;6.670;2022-07-03T06:09:15;8.23;;;3.17;;
15480;SDS011;7842;50.904;6.670;2022-07-03T06:11:41;5.63;;;3.13;;
15480;SDS011;7842;50.904;6.670;2022-07-03T06:14:07;4.45;;;3.25;;
15480;SDS011;7842;50.904;6.670;2022-07-03T06:16:36;5.43;;;3.37;;
15480;SDS011;7842;50.904;6.670;2022-07-03T06:19:02;5.13;;;3.30;;
15480;SDS011;7842;50.904;6.670;2022-07-03T06:21:28;6.45;;;3.38;;
15480;SDS011;7842;50.904;6.670;2022-07-03T06:23:54;8.95;;;3.50;;
15480;SDS011;7842;50.904;6.670;2022-07-03T06:26:20;6.90;;;3.05;;
15480;SDS011;7842;50.904;6.670;2022-07-03T06:28:46;4.43;;;3.20;;
15480;SDS011;7842;50.904;6.670;2022-07-03T06:31:12;8.43;;;3.53;;
15480;SDS011;7842;50.904;6.670;2022-07-03T06:33:38;5.53;;;3.35;;
15480;SDS011;7842;50.904;6.670;2022-07-03T06:36:04;4.95;;;3.50;;
15480;SDS011;7842;50.904;6.670;2022-07-03T06:38:30;5.22;;;3.60;;
15480;SDS011;7842;50.904;6.670;2022-07-03T06:40:56;5.63;;;3.65;;
15480;SDS011;7842;50.904;6.670;2022-07-03T06:43:22;4.60;;;3.17;;
15480;SDS011;7842;50.904;6.670;2022-07-03T06:45:48;7.57;;;3.80;;
15480;SDS011;7842;50.904;6.670;2022-07-03T06:48:14;6.57;;;3.60;;
15480;SDS011;7842;50.904;6.670;2022-07-03T06:50:40;6.05;;;3.47;;
15480;SDS011;7842;50.904;6.670;2022-07-03T06:53:06;5.80;;;3.70;;
15480;SDS011;7842;50.904;6.670;2022-07-03T06:55:32;6.00;;;3.20;;
15480;SDS011;7842;50.904;6.670;2022-07-03T06:57:58;4.27;;;3.17;;
15480;SDS011;7842;50.904;6.670;2022-07-03T07:00:24;6.10;;;3.37;;
15480;SDS011;7842;50.904;6.670;2022-07-03T07:02:50;5.47;;;3.20;;
15480;SDS011;7842;50.904;6.670;2022-07-03T07:05:16;6.93;;;3.20;;
15480;SDS011;7842;50.904;6.670;2022-07-03T07:07:42;5.53;;;3.13;;
15480;SDS011;7842;50.904;6.670;2022-07-03T07:10:08;6.53;;;3.10;;
15480;SDS011;7842;50.904;6.670;2022-07-03T07:12:34;6.53;;;3.13;;
15480;SDS011;7842;50.904;6.670;2022-07-03T07:15:00;7.38;;;2.95;;
15480;SDS011;7842;50.904;6.670;2022-07-03T07:17:26;5.28;;;2.80;;
15480;SDS011;7842;50.904;6.670;2022-07-03T07:19:54;7.43;;;2.85;;
15480;SDS011;7842;50.904;6.670;2022-07-03T07:22:20;7.72;;;3.00;;
15480;SDS011;7842;50.904;6.670;2022-07-03T07:24:46;7.25;;;2.97;;
15480;SDS011;7842;50.904;6.670;2022-07-03T07:27:12;4.60;;;2.63;;
15480;SDS011;7842;50.904;6.670;2022-07-03T07:29:38;6.05;;;2.40;;
15480;SDS011;7842;50.904;6.670;2022-07-03T07:32:04;4.25;;;2.28;;
15480;SDS011;7842;50.904;6.670;2022-07-03T07:34:30;5.45;;;2.08;;
15480;SDS011;7842;50.904;6.670;2022-07-03T07:36:56;3.72;;;2.00;;
15480;SDS011;7842;50.904;6.670;2022-07-03T07:39:22;4.65;;;2.20;;
15480;SDS011;7842;50.904;6.670;2022-07-03T07:41:48;3.75;;;1.92;;
15480;SDS011;7842;50.904;6.670;2022-07-03T07:44:14;4.30;;;1.80;;
15480;SDS011;7842;50.904;6.670;2022-07-03T07:46:40;4.35;;;1.90;;
15480;SDS011;7842;50.904;6.670;2022-07-03T07:49:06;3.53;;;1.93;;
15480;SDS011;7842;50.904;6.670;2022-07-03T07:51:32;4.43;;;2.00;;
15480;SDS011;7842;50.904;6.670;2022-07-03T07:53:58;3.08;;;1.75;;
15480;SDS011;7842;50.904;6.670;2022-07-03T07:56:24;4.70;;;1.90;;
15480;SDS011;7842;50.904;6.670;2022-07-03T07:58:51;2.72;;;1.70;;
15480;SDS011;7842;50.904;6.670;2022-07-03T08:01:17;3.55;;;1.70;;
15480;SDS011;7842;50.904;6.670;2022-07-03T08:04:02;3.60;;;1.70;;
15480;SDS011;7842;50.904;6.670;2022-07-03T08:06:47;4.60;;;1.90;;
15480;SDS011;7842;50.904;6.670;2022-07-03T08:09:13;4.22;;;1.95;;
15480;SDS011;7842;50.904;6.670;2022-07-03T08:11:39;4.13;;;1.80;;
15480;SDS011;7842;50.904;6.670;2022-07-03T08:14:05;3.63;;;2.00;;
15480;SDS011;7842;50.904;6.670;2022-07-03T08:16:33;3.92;;;1.90;;
15480;SDS011;7842;50.904;6.670;2022-07-03T08:18:59;4.60;;;2.20;;
15480;SDS011;7842;50.904;6.670;2022-07-03T08:21:25;3.43;;;2.20;;
15480;SDS011;7842;50.904;6.670;2022-07-03T08:23:51;5.23;;;2.10;;
15480;SDS011;7842;50.904;6.670;2022-07-03T08:26:17;5.97;;;2.00;;
15480;SDS011;7842;50.904;6.670;2022-07-03T08:28:43;5.25;;;2.03;;
15480;SDS011;7842;50.904;6.670;2022-07-03T08:31:09;4.97;;;2.30;;
15480;SDS011;7842;50.904;6.670;2022-07-03T08:33:35;4.10;;;2.25;;
15480;SDS011;7842;50.904;6.670;2022-07-03T08:36:01;5.13;;;2.58;;
15480;SDS011;7842;50.904;6.670;2022-07-03T08:38:29;5.60;;;2.30;;
15480;SDS011;7842;50.904;6.670;2022-07-03T08:40:57;3.55;;;2.50;;
15480;SDS011;7842;50.904;6.670;2022-07-03T08:43:23;6.57;;;2.75;;
15480;SDS011;7842;50.904;6.670;2022-07-03T08:45:50;4.55;;;2.38;;
15480;SDS011;7842;50.904;6.670;2022-07-03T08:48:16;3.05;;;2.20;;
15480;SDS011;7842;50.904;6.670;2022-07-03T08:50:44;5.10;;;2.60;;
15480;SDS011;7842;50.904;6.670;2022-07-03T08:53:10;3.00;;;2.42;;
15480;SDS011;7842;50.904;6.670;2022-07-03T08:55:36;5.13;;;2.83;;
15480;SDS011;7842;50.904;6.670;2022-07-03T08:58:02;4.43;;;2.80;;
15480;SDS011;7842;50.904;6.670;2022-07-03T09:00:29;3.22;;;2.65;;
15480;SDS011;7842;50.904;6.670;2022-07-03T09:02:55;4.10;;;2.95;;
15480;SDS011;7842;50.904;6.670;2022-07-03T09:05:22;3.08;;;2.60;;
15480;SDS011;7842;50.904;6.670;2022-07-03T09:07:48;4.20;;;2.53;;
15480;SDS011;7842;50.904;6.670;2022-07-03T09:10:15;5.82;;;2.78;;
15480;SDS011;7842;50.904;6.670;2022-07-03T09:12:45;3.55;;;2.70;;
15480;SDS011;7842;50.904;6.670;2022-07-03T09:15:11;5.77;;;2.80;;
15480;SDS011;7842;50.904;6.670;2022-07-03T09:17:38;5.15;;;3.00;;
15480;SDS011;7842;50.904;6.670;2022-07-03T09:20:04;4.68;;;2.70;;
15480;SDS011;7842;50.904;6.670;2022-07-03T09:22:31;5.00;;;3.13;;
15480;SDS011;7842;50.904;6.670;2022-07-03T09:27:30;5.28;;;2.50;;
15480;SDS011;7842;50.904;6.670;2022-07-03T09:29:57;4.10;;;2.50;;
15480;SDS011;7842;50.904;6.670;2022-07-03T09:32:24;3.45;;;2.40;;
15480;SDS011;7842;50.904;6.670;2022-07-03T09:35:04;4.27;;;2.40;;
15480;SDS011;7842;50.904;6.670;2022-07-03T09:37:34;4.05;;;2.80;;
15480;SDS011;7842;50.904;6.670;2022-07-03T09:40:01;4.55;;;2.67;;
15480;SDS011;7842;50.904;6.670;2022-07-03T09:42:27;3.43;;;2.70;;
15480;SDS011;7842;50.904;6.670;2022-07-03T09:44:53;3.75;;;2.78;;
15480;SDS011;7842;50.904;6.670;2022-07-03T09:47:20;3.67;;;2.60;;
15480;SDS011;7842;50.904;6.670;2022-07-03T09:49:51;4.80;;;2.92;;
15480;SDS011;7842;50.904;6.670;2022-07-03T09:52:38;4.05;;;2.60;;
15480;SDS011;7842;50.904;6.670;2022-07-03T10:00:10;3.15;;;2.42;;
15480;SDS011;7842;50.904;6.670;2022-07-03T10:02:50;4.05;;;2.50;;
15480;SDS011;7842;50.904;6.670;2022-07-03T10:05:17;5.53;;;2.95;;
15480;SDS011;7842;50.904;6.670;2022-07-03T10:08:16;3.67;;;2.20;;
15480;SDS011;7842;50.904;6.670;2022-07-03T10:10:39;5.25;;;2.50;;
15480;SDS011;7842;50.904;6.670;2022-07-03T10:13:05;3.22;;;2.20;;
15480;SDS011;7842;50.904;6.670;2022-07-03T10:15:32;4.22;;;2.40;;
15480;SDS011;7842;50.904;6.670;2022-07-03T10:18:01;3.30;;;2.10;;
15480;SDS011;7842;50.904;6.670;2022-07-03T10:20:36;3.13;;;2.10;;
15480;SDS011;7842;50.904;6.670;2022-07-03T10:23:04;2.92;;;2.20;;
15480;SDS011;7842;50.904;6.670;2022-07-03T10:25:30;4.70;;;2.17;;
15480;SDS011;7842;50.904;6.670;2022-07-03T10:27:56;5.45;;;2.53;;
15480;SDS011;7842;50.904;6.670;2022-07-03T10:30:23;3.22;;;2.25;;
15480;SDS011;7842;50.904;6.670;2022-07-03T10:32:50;3.42;;;2.40;;
15480;SDS011;7842;50.904;6.670;2022-07-03T10:35:34;3.95;;;2.30;;
15480;SDS011;7842;50.904;6.670;2022-07-03T10:43:25;4.47;;;2.20;;
15480;SDS011;7842;50.904;6.670;2022-07-03T10:46:14;3.33;;;1.90;;
15480;SDS011;7842;50.904;6.670;2022-07-03T10:51:25;2.97;;;2.00;;
15480;SDS011;7842;50.904;6.670;2022-07-03T10:54:11;3.85;;;2.40;;
15480;SDS011;7842;50.904;6.670;2022-07-03T10:59:22;2.67;;;2.20;;
15480;SDS011;7842;50.904;6.670;2022-07-03T11:01:48;2.70;;;2.15;;
15480;SDS011;7842;50.904;6.670;2022-07-03T11:04:14;3.25;;;2.10;;
15480;SDS011;7842;50.904;6.670;2022-07-03T11:09:06;4.22;;;2.20;;
15480;SDS011;7842;50.904;6.670;2022-07-03T11:11:43;3.55;;;2.50;;
15480;SDS011;7842;50.904;6.670;2022-07-03T11:14:26;3.42;;;1.88;;
15480;SDS011;7842;50.904;6.670;2022-07-03T11:19:37;4.45;;;2.10;;
15480;SDS011;7842;50.904;6.670;2022-07-03T11:22:04;3.67;;;1.92;;
15480;SDS011;7842;50.904;6.670;2022-07-03T11:24:35;2.80;;;1.80;;
15480;SDS011;7842;50.904;6.670;2022-07-03T11:27:13;4.05;;;1.83;;
15480;SDS011;7842;50.904;6.670;2022-07-03T11:29:39;3.65;;;2.00;;
15480;SDS011;7842;50.904;6.670;2022-07-03T11:34:50;3.10;;;1.65;;
15480;SDS011;7842;50.904;6.670;2022-07-03T11:37:19;2.40;;;1.80;;
15480;SDS011;7842;50.904;6.670;2022-07-03T11:39:46;3.03;;;1.80;;
15480;SDS011;7842;50.904;6.670;2022-07-03T11:42:14;3.30;;;1.90;;
15480;SDS011;7842;50.904;6.670;2022-07-03T11:44:39;3.58;;;2.17;;
15480;SDS011;7842;50.904;6.670;2022-07-03T11:47:06;3.60;;;1.92;;
15480;SDS011;7842;50.904;6.670;2022-07-03T11:49:32;2.42;;;1.80;;
15480;SDS011;7842;50.904;6.670;2022-07-03T11:52:01;2.38;;;1.80;;
15480;SDS011;7842;50.904;6.670;2022-07-03T11:54:31;2.40;;;1.90;;
15480;SDS011;7842;50.904;6.670;2022-07-03T11:56:58;2.60;;;1.80;;
15480;SDS011;7842;50.904;6.670;2022-07-03T11:59:25;4.78;;;1.70;;
15480;SDS011;7842;50.904;6.670;2022-07-03T12:01:51;3.42;;;1.80;;
15480;SDS011;7842;50.904;6.670;2022-07-03T12:04:20;2.10;;;1.70;;
15480;SDS011;7842;50.904;6.670;2022-07-03T12:06:50;2.70;;;1.70;;
15480;SDS011;7842;50.904;6.670;2022-07-03T12:12:00;1.87;;;1.70;;
15480;SDS011;7842;50.904;6.670;2022-07-03T12:16:59;1.92;;;1.65;;
15480;SDS011;7842;50.904;6.670;2022-07-03T12:19:25;4.40;;;1.60;;
15480;SDS011;7842;50.904;6.670;2022-07-03T12:21:51;7.00;;;2.20;;
15480;SDS011;7842;50.904;6.670;2022-07-03T12:24:17;2.30;;;1.90;;
15480;SDS011;7842;50.904;6.670;2022-07-03T12:26:43;2.40;;;1.60;;
15480;SDS011;7842;50.904;6.670;2022-07-03T12:29:09;2.75;;;1.50;;
15480;SDS011;7842;50.904;6.670;2022-07-03T12:31:38;2.30;;;1.70;;
15480;SDS011;7842;50.904;6.670;2022-07-03T12:34:04;3.83;;;1.60;;
15480;SDS011;7842;50.904;6.670;2022-07-03T12:36:30;2.78;;;1.50;;
15480;SDS011;7842;50.904;6.670;2022-07-03T12:38:56;2.07;;;1.40;;
15480;SDS011;7842;50.904;6.670;2022-07-03T12:41:24;3.50;;;1.50;;
15480;SDS011;7842;50.904;6.670;2022-07-03T12:43:51;2.15;;;1.60;;
15480;SDS011;7842;50.904;6.670;2022-07-03T12:46:17;3.15;;;1.55;;
15480;SDS011;7842;50.904;6.670;2022-07-03T12:48:47;1.83;;;1.50;;
15480;SDS011;7842;50.904;6.670;2022-07-03T12:51:17;2.13;;;1.20;;
15480;SDS011;7842;50.904;6.670;2022-07-03T12:54:02;2.55;;;1.33;;
15480;SDS011;7842;50.904;6.670;2022-07-03T12:56:28;1.88;;;1.40;;
15480;SDS011;7842;50.904;6.670;2022-07-03T12:58:54;1.77;;;1.42;;
15480;SDS011;7842;50.904;6.670;2022-07-03T13:01:39;2.00;;;1.40;;
15480;SDS011;7842;50.904;6.670;2022-07-03T13:04:05;2.75;;;1.60;;
15480;SDS011;7842;50.904;6.670;2022-07-03T13:06:33;2.42;;;1.48;;
15480;SDS011;7842;50.904;6.670;2022-07-03T13:09:00;3.38;;;1.67;;
15480;SDS011;7842;50.904;6.670;2022-07-03T13:11:31;3.38;;;1.80;;
15480;SDS011;7842;50.904;6.670;2022-07-03T13:14:02;2.87;;;1.40;;
15480;SDS011;7842;50.904;6.670;2022-07-03T13:16:46;2.20;;;1.50;;
15480;SDS011;7842;50.904;6.670;2022-07-03T13:19:14;3.20;;;1.50;;
15480;SDS011;7842;50.904;6.670;2022-07-03T13:21:41;2.65;;;1.60;;
15480;SDS011;7842;50.904;6.670;2022-07-03T13:24:11;3.00;;;1.63;;
15480;SDS011;7842;50.904;6.670;2022-07-03T13:26:38;1.80;;;1.20;;
15480;SDS011;7842;50.904;6.670;2022-07-03T13:29:04;2.35;;;1.55;;
15480;SDS011;7842;50.904;6.670;2022-07-03T13:31:30;2.05;;;1.48;;
15480;SDS011;7842;50.904;6.670;2022-07-03T13:33:56;1.70;;;1.35;;
15480;SDS011;7842;50.904;6.670;2022-07-03T13:36:24;2.70;;;1.20;;
15480;SDS011;7842;50.904;6.670;2022-07-03T13:38:50;2.03;;;1.40;;
15480;SDS011;7842;50.904;6.670;2022-07-03T13:41:16;1.53;;;1.20;;
15480;SDS011;7842;50.904;6.670;2022-07-03T13:43:43;3.20;;;1.58;;
15480;SDS011;7842;50.904;6.670;2022-07-03T13:46:10;1.77;;;1.27;;
15480;SDS011;7842;50.904;6.670;2022-07-03T13:48:36;2.20;;;1.30;;
15480;SDS011;7842;50.904;6.670;2022-07-03T13:51:01;3.20;;;1.50;;
15480;SDS011;7842;50.904;6.670;2022-07-03T13:53:27;2.30;;;1.35;;
15480;SDS011;7842;50.904;6.670;2022-07-03T13:55:56;2.30;;;1.40;;
15480;SDS011;7842;50.904;6.670;2022-07-03T13:58:23;2.50;;;1.55;;
15480;SDS011;7842;50.904;6.670;2022-07-03T14:00:49;2.85;;;1.55;;
15480;SDS011;7842;50.904;6.670;2022-07-03T14:03:15;2.28;;;1.40;;
15480;SDS011;7842;50.904;6.670;2022-07-03T14:05:41;3.92;;;1.52;;
15480;SDS011;7842;50.904;6.670;2022-07-03T14:08:07;4.47;;;1.63;;
15480;SDS011;7842;50.904;6.670;2022-07-03T14:10:33;8.17;;;1.93;;
15480;SDS011;7842;50.904;6.670;2022-07-03T14:12:59;7.53;;;2.25;;
15480;SDS011;7842;50.904;6.670;2022-07-03T14:15:25;2.97;;;1.48;;
15480;SDS011;7842;50.904;6.670;2022-07-03T14:17:50;2.15;;;1.30;;
15480;SDS011;7842;50.904;6.670;2022-07-03T14:20:16;3.00;;;1.40;;
15480;SDS011;7842;50.904;6.670;2022-07-03T14:22:43;2.08;;;1.75;;
15480;SDS011;7842;50.904;6.670;2022-07-03T14:25:09;3.22;;;1.55;;
15480;SDS011;7842;50.904;6.670;2022-07-03T14:27:35;2.35;;;1.40;;
15480;SDS011;7842;50.904;6.670;2022-07-03T14:30:20;1.30;;;1.15;;
15480;SDS011;7842;50.904;6.670;2022-07-03T14:33:05;1.83;;;1.38;;
15480;SDS011;7842;50.904;6.670;2022-07-03T14:35:31;2.03;;;1.30;;
15480;SDS011;7842;50.904;6.670;2022-07-03T14:37:57;4.00;;;1.40;;
15480;SDS011;7842;50.904;6.670;2022-07-03T14:40:23;1.40;;;1.30;;
15480;SDS011;7842;50.904;6.670;2022-07-03T14:42:49;1.60;;;1.27;;
15480;SDS011;7842;50.904;6.670;2022-07-03T14:45:14;2.13;;;1.20;;
15480;SDS011;7842;50.904;6.670;2022-07-03T14:47:41;1.80;;;1.30;;
15480;SDS011;7842;50.904;6.670;2022-07-03T14:50:07;3.50;;;1.70;;
15480;SDS011;7842;50.904;6.670;2022-07-03T14:52:33;2.20;;;1.30;;
15480;SDS011;7842;50.904;6.670;2022-07-03T14:54:59;2.15;;;1.45;;
15480;SDS011;7842;50.904;6.670;2022-07-03T14:57:26;2.53;;;1.45;;
15480;SDS011;7842;50.904;6.670;2022-07-03T15:02:20;1.83;;;1.53;;
15480;SDS011;7842;50.904;6.670;2022-07-03T15:07:32;3.58;;;1.40;;
15480;SDS011;7842;50.904;6.670;2022-07-03T15:10:04;2.00;;;1.42;;
15480;SDS011;7842;50.904;6.670;2022-07-03T15:12:30;2.38;;;1.55;;
15480;SDS011;7842;50.904;6.670;2022-07-03T15:14:58;2.80;;;1.60;;
15480;SDS011;7842;50.904;6.670;2022-07-03T15:17:24;2.63;;;1.60;;
15480;SDS011;7842;50.904;6.670;2022-07-03T15:19:51;1.60;;;1.47;;
15480;SDS011;7842;50.904;6.670;2022-07-03T15:22:20;1.63;;;1.30;;
15480;SDS011;7842;50.904;6.670;2022-07-03T15:24:47;4.40;;;1.60;;
15480;SDS011;7842;50.904;6.670;2022-07-03T15:27:14;4.03;;;1.87;;
15480;SDS011;7842;50.904;6.670;2022-07-03T15:29:41;3.92;;;1.70;;
15480;SDS011;7842;50.904;6.670;2022-07-03T15:32:08;2.22;;;1.60;;
15480;SDS011;7842;50.904;6.670;2022-07-03T15:34:36;3.58;;;1.80;;
15480;SDS011;7842;50.904;6.670;2022-07-03T15:39:37;2.03;;;1.67;;
15480;SDS011;7842;50.904;6.670;2022-07-03T15:42:12;2.15;;;1.60;;
15480;SDS011;7842;50.904;6.670;2022-07-03T15:49:53;2.95;;;1.50;;
15480;SDS011;7842;50.904;6.670;2022-07-03T15:52:21;2.00;;;1.67;;
15480;SDS011;7842;50.904;6.670;2022-07-03T15:57:32;2.13;;;1.70;;
15480;SDS011;7842;50.904;6.670;2022-07-03T16:00:21;1.90;;;1.40;;
15480;SDS011;7842;50.904;6.670;2022-07-03T16:02:54;2.60;;;1.60;;
15480;SDS011;7842;50.904;6.670;2022-07-03T16:05:25;1.70;;;1.60;;
15480;SDS011;7842;50.904;6.670;2022-07-03T16:07:52;2.15;;;1.40;;
15480;SDS011;7842;50.904;6.670;2022-07-03T16:10:19;2.72;;;1.70;;
15480;SDS011;7842;50.904;6.670;2022-07-03T16:12:45;2.92;;;1.52;;